sensor_id;sensor_type;location;lat;lon;timestamp;P1;durP1;ratioP1;P2;durP2;ratioP2
75246;SDS011;63844;50.042;19.224;2023-02-15T00:01:14;42.20;;;18.30;;
75246;SDS011;63844;50.042;19.224;2023-02-15T00:03:41;45.20;;;20.30;;
75246;SDS011;63844;50.042;19.224;2023-02-15T00:06:07;46.00;;;21.10;;
75246;SDS011;63844;50.042;19.224;2023-02-15T00:08:34;52.30;;;23.90;;
75246;SDS011;63844;50.042;19.224;2023-02-15T00:11:07;47.50;;;19.80;;
75246;SDS011;63844;50.042;19.224;2023-02-15T00:13:35;45.60;;;19.90;;
75246;SDS011;63844;50.042;19.224;2023-02-15T00:16:03;59.80;;;24.10;;
75246;SDS011;63844;50.042;19.224;2023-02-15T00:18:30;58.30;;;25.10;;
75246;SDS011;63844;50.042;19.224;2023-02-15T00:20:57;54.00;;;23.70;;
75246;SDS011;63844;50.042;19.224;2023-02-15T00:25:52;46.60;;;20.70;;
75246;SDS011;63844;50.042;19.224;2023-02-15T00:28:18;47.60;;;20.90;;
75246;SDS011;63844;50.042;19.224;2023-02-15T00:30:45;55.10;;;23.60;;
75246;SDS011;63844;50.042;19.224;2023-02-15T00:33:11;55.50;;;23.40;;
75246;SDS011;63844;50.042;19.224;2023-02-15T00:35:38;51.10;;;22.60;;
75246;SDS011;63844;50.042;19.224;2023-02-15T00:38:04;51.40;;;23.10;;
75246;SDS011;63844;50.042;19.224;2023-02-15T00:40:52;54.20;;;22.60;;
75246;SDS011;63844;50.042;19.224;2023-02-15T00:43:19;55.10;;;23.20;;
75246;SDS011;63844;50.042;19.224;2023-02-15T00:45:46;46.80;;;21.10;;
75246;SDS011;63844;50.042;19.224;2023-02-15T00:48:13;51.90;;;24.30;;
75246;SDS011;63844;50.042;19.224;2023-02-15T00:50:39;52.50;;;25.10;;
75246;SDS011;63844;50.042;19.224;2023-02-15T00:53:06;53.30;;;24.70;;
75246;SDS011;63844;50.042;19.224;2023-02-15T00:55:32;58.60;;;25.30;;
75246;SDS011;63844;50.042;19.224;2023-02-15T00:57:59;54.60;;;24.30;;
75246;SDS011;63844;50.042;19.224;2023-02-15T01:00:26;59.10;;;25.90;;
75246;SDS011;63844;50.042;19.224;2023-02-15T01:02:52;52.60;;;23.90;;
75246;SDS011;63844;50.042;19.224;2023-02-15T01:05:19;41.40;;;17.80;;
75246;SDS011;63844;50.042;19.224;2023-02-15T01:07:45;45.50;;;21.00;;
75246;SDS011;63844;50.042;19.224;2023-02-15T01:10:12;51.30;;;23.10;;
75246;SDS011;63844;50.042;19.224;2023-02-15T01:12:38;49.00;;;21.60;;
75246;SDS011;63844;50.042;19.224;2023-02-15T01:15:05;51.00;;;22.20;;
75246;SDS011;63844;50.042;19.224;2023-02-15T01:17:31;54.20;;;23.90;;
75246;SDS011;63844;50.042;19.224;2023-02-15T01:19:58;46.70;;;21.40;;
75246;SDS011;63844;50.042;19.224;2023-02-15T01:22:25;46.90;;;21.90;;
75246;SDS011;63844;50.042;19.224;2023-02-15T01:24:52;49.00;;;20.40;;
75246;SDS011;63844;50.042;19.224;2023-02-15T01:27:18;36.30;;;16.00;;
75246;SDS011;63844;50.042;19.224;2023-02-15T01:29:44;44.60;;;20.90;;
75246;SDS011;63844;50.042;19.224;2023-02-15T01:32:11;45.10;;;20.30;;
75246;SDS011;63844;50.042;19.224;2023-02-15T01:34:37;47.90;;;23.10;;
75246;SDS011;63844;50.042;19.224;2023-02-15T01:37:04;39.60;;;19.20;;
75246;SDS011;63844;50.042;19.224;2023-02-15T01:39:30;51.30;;;22.30;;
75246;SDS011;63844;50.042;19.224;2023-02-15T01:42:14;54.20;;;21.60;;
75246;SDS011;63844;50.042;19.224;2023-02-15T01:47:21;37.40;;;17.20;;
75246;SDS011;63844;50.042;19.224;2023-02-15T01:49:55;43.00;;;19.80;;
75246;SDS011;63844;50.042;19.224;2023-02-15T01:52:27;38.40;;;17.00;;
75246;SDS011;63844;50.042;19.224;2023-02-15T01:54:55;33.10;;;15.60;;
75246;SDS011;63844;50.042;19.224;2023-02-15T01:57:22;39.20;;;17.00;;
75246;SDS011;63844;50.042;19.224;2023-02-15T01:59:53;39.50;;;18.20;;
75246;SDS011;63844;50.042;19.224;2023-02-15T02:02:24;36.30;;;16.20;;
75246;SDS011;63844;50.042;19.224;2023-02-15T02:04:52;35.80;;;15.50;;
75246;SDS011;63844;50.042;19.224;2023-02-15T02:07:22;33.40;;;16.20;;
75246;SDS011;63844;50.042;19.224;2023-02-15T02:09:53;32.40;;;15.20;;
75246;SDS011;63844;50.042;19.224;2023-02-15T02:12:19;28.60;;;13.00;;
75246;SDS011;63844;50.042;19.224;2023-02-15T02:14:48;24.50;;;10.70;;
75246;SDS011;63844;50.042;19.224;2023-02-15T02:17:19;28.60;;;13.60;;
75246;SDS011;63844;50.042;19.224;2023-02-15T02:22:57;29.60;;;13.60;;
75246;SDS011;63844;50.042;19.224;2023-02-15T02:28:39;21.50;;;9.40;;
75246;SDS011;63844;50.042;19.224;2023-02-15T02:36:49;23.20;;;10.90;;
75246;SDS011;63844;50.042;19.224;2023-02-15T02:45:06;21.70;;;9.80;;
75246;SDS011;63844;50.042;19.224;2023-02-15T02:47:47;19.90;;;8.50;;
75246;SDS011;63844;50.042;19.224;2023-02-15T02:50:21;16.40;;;6.90;;
75246;SDS011;63844;50.042;19.224;2023-02-15T02:52:50;23.90;;;9.50;;
75246;SDS011;63844;50.042;19.224;2023-02-15T02:55:21;20.10;;;9.50;;
75246;SDS011;63844;50.042;19.224;2023-02-15T02:57:53;19.40;;;8.60;;
75246;SDS011;63844;50.042;19.224;2023-02-15T03:00:24;16.50;;;7.60;;
75246;SDS011;63844;50.042;19.224;2023-02-15T03:02:56;21.60;;;9.40;;
75246;SDS011;63844;50.042;19.224;2023-02-15T03:05:31;19.70;;;8.70;;
75246;SDS011;63844;50.042;19.224;2023-02-15T03:08:01;15.20;;;7.20;;
75246;SDS011;63844;50.042;19.224;2023-02-15T03:10:32;24.10;;;10.60;;
75246;SDS011;63844;50.042;19.224;2023-02-15T03:13:01;22.40;;;9.90;;
75246;SDS011;63844;50.042;19.224;2023-02-15T03:15:32;20.30;;;9.20;;
75246;SDS011;63844;50.042;19.224;2023-02-15T03:18:22;16.10;;;7.90;;
75246;SDS011;63844;50.042;19.224;2023-02-15T03:20:56;23.80;;;10.70;;
75246;SDS011;63844;50.042;19.224;2023-02-15T03:23:27;22.70;;;11.00;;
75246;SDS011;63844;50.042;19.224;2023-02-15T03:25:56;14.20;;;7.20;;
75246;SDS011;63844;50.042;19.224;2023-02-15T03:28:45;20.30;;;9.60;;
75246;SDS011;63844;50.042;19.224;2023-02-15T03:31:15;24.70;;;11.20;;
75246;SDS011;63844;50.042;19.224;2023-02-15T03:33:51;15.30;;;6.30;;
75246;SDS011;63844;50.042;19.224;2023-02-15T03:36:27;24.10;;;11.20;;
75246;SDS011;63844;50.042;19.224;2023-02-15T03:39:00;24.70;;;10.70;;
75246;SDS011;63844;50.042;19.224;2023-02-15T03:41:55;27.90;;;12.10;;
75246;SDS011;63844;50.042;19.224;2023-02-15T03:44:45;22.70;;;10.80;;
75246;SDS011;63844;50.042;19.224;2023-02-15T03:47:20;14.70;;;7.20;;
75246;SDS011;63844;50.042;19.224;2023-02-15T03:50:00;23.80;;;10.60;;
75246;SDS011;63844;50.042;19.224;2023-02-15T03:52:51;20.50;;;9.90;;
75246;SDS011;63844;50.042;19.224;2023-02-15T03:55:20;23.80;;;10.70;;
75246;SDS011;63844;50.042;19.224;2023-02-15T03:57:46;19.30;;;7.10;;
75246;SDS011;63844;50.042;19.224;2023-02-15T04:00:32;26.40;;;12.20;;
75246;SDS011;63844;50.042;19.224;2023-02-15T04:03:27;16.60;;;7.50;;
75246;SDS011;63844;50.042;19.224;2023-02-15T04:06:01;27.10;;;12.40;;
75246;SDS011;63844;50.042;19.224;2023-02-15T04:08:29;23.20;;;10.60;;
75246;SDS011;63844;50.042;19.224;2023-02-15T04:11:14;18.20;;;7.20;;
75246;SDS011;63844;50.042;19.224;2023-02-15T04:13:41;19.40;;;8.70;;
75246;SDS011;63844;50.042;19.224;2023-02-15T04:16:07;22.60;;;10.30;;
75246;SDS011;63844;50.042;19.224;2023-02-15T04:18:38;29.60;;;12.90;;
75246;SDS011;63844;50.042;19.224;2023-02-15T04:21:26;24.00;;;10.40;;
75246;SDS011;63844;50.042;19.224;2023-02-15T04:24:13;25.40;;;10.60;;
75246;SDS011;63844;50.042;19.224;2023-02-15T04:26:59;26.80;;;11.30;;
75246;SDS011;63844;50.042;19.224;2023-02-15T04:31:54;30.70;;;12.60;;
75246;SDS011;63844;50.042;19.224;2023-02-15T04:34:22;23.20;;;9.00;;
75246;SDS011;63844;50.042;19.224;2023-02-15T04:36:48;26.20;;;12.00;;
75246;SDS011;63844;50.042;19.224;2023-02-15T04:39:16;27.90;;;12.20;;
75246;SDS011;63844;50.042;19.224;2023-02-15T04:41:44;26.20;;;10.60;;
75246;SDS011;63844;50.042;19.224;2023-02-15T04:44:12;26.00;;;12.20;;
75246;SDS011;63844;50.042;19.224;2023-02-15T04:46:38;25.50;;;11.20;;
75246;SDS011;63844;50.042;19.224;2023-02-15T04:49:04;33.90;;;14.00;;
75246;SDS011;63844;50.042;19.224;2023-02-15T04:51:31;33.90;;;14.20;;
75246;SDS011;63844;50.042;19.224;2023-02-15T04:53:58;25.70;;;11.70;;
75246;SDS011;63844;50.042;19.224;2023-02-15T04:56:24;30.70;;;13.00;;
75246;SDS011;63844;50.042;19.224;2023-02-15T04:58:51;28.60;;;12.80;;
75246;SDS011;63844;50.042;19.224;2023-02-15T05:01:17;28.50;;;13.00;;
75246;SDS011;63844;50.042;19.224;2023-02-15T05:03:44;33.20;;;11.60;;
75246;SDS011;63844;50.042;19.224;2023-02-15T05:06:10;33.20;;;13.10;;
75246;SDS011;63844;50.042;19.224;2023-02-15T05:08:37;21.80;;;9.70;;
75246;SDS011;63844;50.042;19.224;2023-02-15T05:11:03;22.80;;;10.00;;
75246;SDS011;63844;50.042;19.224;2023-02-15T05:13:30;29.90;;;12.70;;
75246;SDS011;63844;50.042;19.224;2023-02-15T05:15:56;29.50;;;12.50;;
75246;SDS011;63844;50.042;19.224;2023-02-15T05:18:23;34.90;;;14.70;;
75246;SDS011;63844;50.042;19.224;2023-02-15T05:20:49;36.30;;;14.60;;
75246;SDS011;63844;50.042;19.224;2023-02-15T05:23:16;30.10;;;13.50;;
75246;SDS011;63844;50.042;19.224;2023-02-15T05:25:46;24.50;;;11.10;;
75246;SDS011;63844;50.042;19.224;2023-02-15T05:28:36;25.20;;;10.40;;
75246;SDS011;63844;50.042;19.224;2023-02-15T05:31:08;33.90;;;12.90;;
75246;SDS011;63844;50.042;19.224;2023-02-15T05:33:37;28.40;;;11.30;;
75246;SDS011;63844;50.042;19.224;2023-02-15T05:36:05;28.90;;;11.20;;
75246;SDS011;63844;50.042;19.224;2023-02-15T05:38:32;30.80;;;11.80;;
75246;SDS011;63844;50.042;19.224;2023-02-15T05:43:26;30.30;;;11.90;;
75246;SDS011;63844;50.042;19.224;2023-02-15T05:45:53;28.80;;;12.50;;
75246;SDS011;63844;50.042;19.224;2023-02-15T05:48:21;25.90;;;11.40;;
75246;SDS011;63844;50.042;19.224;2023-02-15T05:50:56;27.40;;;11.70;;
75246;SDS011;63844;50.042;19.224;2023-02-15T05:53:31;26.00;;;11.80;;
75246;SDS011;63844;50.042;19.224;2023-02-15T05:55:59;23.80;;;10.00;;
75246;SDS011;63844;50.042;19.224;2023-02-15T05:58:29;27.20;;;12.00;;
75246;SDS011;63844;50.042;19.224;2023-02-15T06:00:57;27.10;;;12.00;;
75246;SDS011;63844;50.042;19.224;2023-02-15T06:03:24;25.40;;;8.90;;
75246;SDS011;63844;50.042;19.224;2023-02-15T06:05:52;30.40;;;12.60;;
75246;SDS011;63844;50.042;19.224;2023-02-15T06:08:18;25.20;;;11.00;;
75246;SDS011;63844;50.042;19.224;2023-02-15T06:10:45;16.80;;;6.90;;
75246;SDS011;63844;50.042;19.224;2023-02-15T06:13:12;18.50;;;8.00;;
75246;SDS011;63844;50.042;19.224;2023-02-15T06:15:39;23.80;;;10.60;;
75246;SDS011;63844;50.042;19.224;2023-02-15T06:18:05;22.30;;;9.50;;
75246;SDS011;63844;50.042;19.224;2023-02-15T06:20:32;21.20;;;9.20;;
75246;SDS011;63844;50.042;19.224;2023-02-15T06:22:59;18.10;;;6.50;;
75246;SDS011;63844;50.042;19.224;2023-02-15T06:25:25;37.40;;;18.50;;
75246;SDS011;63844;50.042;19.224;2023-02-15T06:27:52;30.60;;;13.50;;
75246;SDS011;63844;50.042;19.224;2023-02-15T06:30:19;17.20;;;7.50;;
75246;SDS011;63844;50.042;19.224;2023-02-15T06:32:46;13.80;;;5.90;;
75246;SDS011;63844;50.042;19.224;2023-02-15T06:35:13;18.30;;;7.50;;
75246;SDS011;63844;50.042;19.224;2023-02-15T06:37:39;19.70;;;8.60;;
75246;SDS011;63844;50.042;19.224;2023-02-15T06:40:06;16.10;;;6.60;;
75246;SDS011;63844;50.042;19.224;2023-02-15T06:42:34;25.90;;;9.00;;
75246;SDS011;63844;50.042;19.224;2023-02-15T06:45:00;15.30;;;5.50;;
75246;SDS011;63844;50.042;19.224;2023-02-15T06:47:27;18.60;;;8.30;;
75246;SDS011;63844;50.042;19.224;2023-02-15T06:49:53;21.20;;;8.70;;
75246;SDS011;63844;50.042;19.224;2023-02-15T06:52:20;20.70;;;9.30;;
75246;SDS011;63844;50.042;19.224;2023-02-15T06:54:46;21.50;;;9.60;;
75246;SDS011;63844;50.042;19.224;2023-02-15T06:57:13;21.20;;;9.90;;
75246;SDS011;63844;50.042;19.224;2023-02-15T06:59:39;14.80;;;6.30;;
75246;SDS011;63844;50.042;19.224;2023-02-15T07:02:06;22.50;;;9.80;;
75246;SDS011;63844;50.042;19.224;2023-02-15T07:04:32;24.20;;;10.20;;
75246;SDS011;63844;50.042;19.224;2023-02-15T07:06:59;20.00;;;8.80;;
75246;SDS011;63844;50.042;19.224;2023-02-15T07:09:25;13.60;;;6.20;;
75246;SDS011;63844;50.042;19.224;2023-02-15T07:11:52;24.30;;;9.70;;
75246;SDS011;63844;50.042;19.224;2023-02-15T07:14:37;21.30;;;7.60;;
75246;SDS011;63844;50.042;19.224;2023-02-15T07:17:03;20.90;;;8.90;;
75246;SDS011;63844;50.042;19.224;2023-02-15T07:19:30;17.30;;;6.60;;
75246;SDS011;63844;50.042;19.224;2023-02-15T07:21:56;18.80;;;8.10;;
75246;SDS011;63844;50.042;19.224;2023-02-15T07:24:23;9.80;;;3.70;;
75246;SDS011;63844;50.042;19.224;2023-02-15T07:26:50;15.60;;;6.90;;
75246;SDS011;63844;50.042;19.224;2023-02-15T07:29:16;10.70;;;4.30;;
75246;SDS011;63844;50.042;19.224;2023-02-15T07:31:43;21.80;;;9.20;;
75246;SDS011;63844;50.042;19.224;2023-02-15T07:34:11;13.60;;;5.40;;
75246;SDS011;63844;50.042;19.224;2023-02-15T07:36:38;14.30;;;5.80;;
75246;SDS011;63844;50.042;19.224;2023-02-15T07:39:04;20.30;;;7.50;;
75246;SDS011;63844;50.042;19.224;2023-02-15T07:41:31;19.20;;;8.10;;
75246;SDS011;63844;50.042;19.224;2023-02-15T07:43:58;14.40;;;6.50;;
75246;SDS011;63844;50.042;19.224;2023-02-15T07:46:24;14.80;;;6.50;;
75246;SDS011;63844;50.042;19.224;2023-02-15T07:48:51;19.20;;;8.20;;
75246;SDS011;63844;50.042;19.224;2023-02-15T07:51:18;13.80;;;5.50;;
75246;SDS011;63844;50.042;19.224;2023-02-15T07:53:44;16.10;;;6.40;;
75246;SDS011;63844;50.042;19.224;2023-02-15T07:56:11;13.60;;;5.80;;
75246;SDS011;63844;50.042;19.224;2023-02-15T07:58:39;13.50;;;4.70;;
75246;SDS011;63844;50.042;19.224;2023-02-15T08:01:18;17.00;;;7.20;;
75246;SDS011;63844;50.042;19.224;2023-02-15T08:03:53;13.20;;;5.50;;
75246;SDS011;63844;50.042;19.224;2023-02-15T08:06:21;13.00;;;6.10;;
75246;SDS011;63844;50.042;19.224;2023-02-15T08:08:49;18.10;;;7.40;;
75246;SDS011;63844;50.042;19.224;2023-02-15T08:11:20;15.00;;;5.90;;
75246;SDS011;63844;50.042;19.224;2023-02-15T08:16:40;13.40;;;4.90;;
75246;SDS011;63844;50.042;19.224;2023-02-15T08:19:09;16.60;;;7.20;;
75246;SDS011;63844;50.042;19.224;2023-02-15T08:21:38;24.80;;;11.40;;
75246;SDS011;63844;50.042;19.224;2023-02-15T08:24:07;24.70;;;10.70;;
75246;SDS011;63844;50.042;19.224;2023-02-15T08:26:35;21.20;;;9.90;;
75246;SDS011;63844;50.042;19.224;2023-02-15T08:29:03;17.20;;;8.40;;
75246;SDS011;63844;50.042;19.224;2023-02-15T08:31:29;24.90;;;10.50;;
75246;SDS011;63844;50.042;19.224;2023-02-15T08:33:56;15.90;;;6.90;;
75246;SDS011;63844;50.042;19.224;2023-02-15T08:36:24;19.40;;;9.50;;
75246;SDS011;63844;50.042;19.224;2023-02-15T08:38:53;17.00;;;7.70;;
75246;SDS011;63844;50.042;19.224;2023-02-15T08:41:30;21.90;;;6.70;;
75246;SDS011;63844;50.042;19.224;2023-02-15T08:43:59;15.90;;;6.80;;
75246;SDS011;63844;50.042;19.224;2023-02-15T08:46:29;16.40;;;6.30;;
75246;SDS011;63844;50.042;19.224;2023-02-15T08:48:58;16.80;;;7.80;;
75246;SDS011;63844;50.042;19.224;2023-02-15T08:51:29;15.30;;;5.80;;
75246;SDS011;63844;50.042;19.224;2023-02-15T08:54:00;11.30;;;5.40;;
75246;SDS011;63844;50.042;19.224;2023-02-15T08:56:31;14.10;;;6.50;;
75246;SDS011;63844;50.042;19.224;2023-02-15T08:59:01;18.90;;;8.10;;
75246;SDS011;63844;50.042;19.224;2023-02-15T09:01:29;16.60;;;7.20;;
75246;SDS011;63844;50.042;19.224;2023-02-15T09:03:58;15.70;;;7.10;;
75246;SDS011;63844;50.042;19.224;2023-02-15T09:06:30;14.40;;;6.10;;
75246;SDS011;63844;50.042;19.224;2023-02-15T09:11:27;19.20;;;7.50;;
75246;SDS011;63844;50.042;19.224;2023-02-15T09:13:59;14.80;;;6.80;;
75246;SDS011;63844;50.042;19.224;2023-02-15T09:16:31;14.60;;;6.70;;
75246;SDS011;63844;50.042;19.224;2023-02-15T09:19:00;14.70;;;6.60;;
75246;SDS011;63844;50.042;19.224;2023-02-15T09:21:28;12.60;;;5.80;;
75246;SDS011;63844;50.042;19.224;2023-02-15T09:23:56;20.10;;;8.80;;
75246;SDS011;63844;50.042;19.224;2023-02-15T09:26:26;11.90;;;4.80;;
75246;SDS011;63844;50.042;19.224;2023-02-15T09:28:55;15.90;;;6.90;;
75246;SDS011;63844;50.042;19.224;2023-02-15T09:31:25;19.10;;;7.90;;
75246;SDS011;63844;50.042;19.224;2023-02-15T09:33:54;18.50;;;8.00;;
75246;SDS011;63844;50.042;19.224;2023-02-15T09:36:25;18.80;;;8.00;;
75246;SDS011;63844;50.042;19.224;2023-02-15T09:38:54;10.50;;;4.30;;
75246;SDS011;63844;50.042;19.224;2023-02-15T09:44:28;17.00;;;7.40;;
75246;SDS011;63844;50.042;19.224;2023-02-15T09:50:13;17.60;;;6.60;;
75246;SDS011;63844;50.042;19.224;2023-02-15T09:55:51;20.50;;;8.40;;
75246;SDS011;63844;50.042;19.224;2023-02-15T10:04:42;20.50;;;9.30;;
75246;SDS011;63844;50.042;19.224;2023-02-15T10:07:52;18.80;;;8.20;;
75246;SDS011;63844;50.042;19.224;2023-02-15T10:10:24;19.40;;;9.30;;
75246;SDS011;63844;50.042;19.224;2023-02-15T10:16:11;17.30;;;6.80;;
75246;SDS011;63844;50.042;19.224;2023-02-15T10:24:20;20.90;;;10.10;;
75246;SDS011;63844;50.042;19.224;2023-02-15T10:27:15;20.00;;;8.70;;
75246;SDS011;63844;50.042;19.224;2023-02-15T10:29:52;20.60;;;9.60;;
75246;SDS011;63844;50.042;19.224;2023-02-15T10:32:28;260.60;;;96.40;;
75246;SDS011;63844;50.042;19.224;2023-02-15T10:37:47;24.20;;;9.80;;
75246;SDS011;63844;50.042;19.224;2023-02-15T10:48:35;51.60;;;22.40;;
75246;SDS011;63844;50.042;19.224;2023-02-15T10:51:24;24.60;;;10.70;;
75246;SDS011;63844;50.042;19.224;2023-02-15T10:57:18;29.80;;;12.30;;
75246;SDS011;63844;50.042;19.224;2023-02-15T11:02:50;18.10;;;8.30;;
75246;SDS011;63844;50.042;19.224;2023-02-15T11:05:52;19.00;;;9.70;;
75246;SDS011;63844;50.042;19.224;2023-02-15T11:08:40;15.10;;;7.80;;
75246;SDS011;63844;50.042;19.224;2023-02-15T11:11:13;20.40;;;8.50;;
75246;SDS011;63844;50.042;19.224;2023-02-15T11:13:47;25.90;;;9.10;;
75246;SDS011;63844;50.042;19.224;2023-02-15T11:16:18;53.70;;;17.90;;
75246;SDS011;63844;50.042;19.224;2023-02-15T11:18:56;26.80;;;10.30;;
75246;SDS011;63844;50.042;19.224;2023-02-15T11:21:33;55.30;;;18.90;;
75246;SDS011;63844;50.042;19.224;2023-02-15T11:24:24;43.30;;;12.90;;
75246;SDS011;63844;50.042;19.224;2023-02-15T11:29:50;24.90;;;9.80;;
75246;SDS011;63844;50.042;19.224;2023-02-15T11:32:26;37.80;;;14.20;;
75246;SDS011;63844;50.042;19.224;2023-02-15T11:35:10;27.20;;;12.10;;
75246;SDS011;63844;50.042;19.224;2023-02-15T11:37:50;24.10;;;10.40;;
75246;SDS011;63844;50.042;19.224;2023-02-15T11:40:22;18.20;;;7.00;;
75246;SDS011;63844;50.042;19.224;2023-02-15T11:42:51;21.00;;;9.10;;
75246;SDS011;63844;50.042;19.224;2023-02-15T11:48:00;16.30;;;8.00;;
75246;SDS011;63844;50.042;19.224;2023-02-15T11:50:34;18.00;;;8.10;;
75246;SDS011;63844;50.042;19.224;2023-02-15T11:53:01;46.20;;;15.30;;
75246;SDS011;63844;50.042;19.224;2023-02-15T11:55:31;35.00;;;12.00;;
75246;SDS011;63844;50.042;19.224;2023-02-15T11:58:03;22.40;;;10.50;;
75246;SDS011;63844;50.042;19.224;2023-02-15T12:00:50;21.60;;;9.10;;
75246;SDS011;63844;50.042;19.224;2023-02-15T12:03:22;18.50;;;8.00;;
75246;SDS011;63844;50.042;19.224;2023-02-15T12:06:01;19.30;;;9.00;;
75246;SDS011;63844;50.042;19.224;2023-02-15T12:08:36;36.20;;;12.40;;
75246;SDS011;63844;50.042;19.224;2023-02-15T12:11:09;25.20;;;11.00;;
75246;SDS011;63844;50.042;19.224;2023-02-15T12:13:54;52.30;;;17.60;;
75246;SDS011;63844;50.042;19.224;2023-02-15T12:16:23;22.30;;;9.80;;
75246;SDS011;63844;50.042;19.224;2023-02-15T12:18:52;23.60;;;11.00;;
75246;SDS011;63844;50.042;19.224;2023-02-15T12:21:28;17.70;;;7.20;;
75246;SDS011;63844;50.042;19.224;2023-02-15T12:24:03;19.10;;;9.10;;
75246;SDS011;63844;50.042;19.224;2023-02-15T12:26:43;15.20;;;6.80;;
75246;SDS011;63844;50.042;19.224;2023-02-15T12:29:22;18.00;;;7.90;;
75246;SDS011;63844;50.042;19.224;2023-02-15T12:31:53;19.20;;;8.10;;
75246;SDS011;63844;50.042;19.224;2023-02-15T12:34:30;48.00;;;17.90;;
75246;SDS011;63844;50.042;19.224;2023-02-15T12:37:09;32.90;;;13.20;;
75246;SDS011;63844;50.042;19.224;2023-02-15T12:39:55;31.80;;;12.50;;
75246;SDS011;63844;50.042;19.224;2023-02-15T12:42:23;25.70;;;11.10;;
75246;SDS011;63844;50.042;19.224;2023-02-15T12:44:55;22.30;;;10.00;;
75246;SDS011;63844;50.042;19.224;2023-02-15T12:47:25;18.20;;;9.20;;
75246;SDS011;63844;50.042;19.224;2023-02-15T12:50:06;17.80;;;7.90;;
75246;SDS011;63844;50.042;19.224;2023-02-15T12:52:43;21.60;;;10.50;;
75246;SDS011;63844;50.042;19.224;2023-02-15T12:55:19;21.80;;;9.60;;
75246;SDS011;63844;50.042;19.224;2023-02-15T12:57:46;20.30;;;9.70;;
75246;SDS011;63844;50.042;19.224;2023-02-15T13:02:47;22.50;;;10.00;;
75246;SDS011;63844;50.042;19.224;2023-02-15T13:05:21;18.90;;;10.00;;
75246;SDS011;63844;50.042;19.224;2023-02-15T13:07:54;19.20;;;10.00;;
75246;SDS011;63844;50.042;19.224;2023-02-15T13:10:28;17.20;;;8.00;;
75246;SDS011;63844;50.042;19.224;2023-02-15T13:12:57;17.60;;;8.90;;
75246;SDS011;63844;50.042;19.224;2023-02-15T13:15:25;18.30;;;9.40;;
75246;SDS011;63844;50.042;19.224;2023-02-15T13:17:55;18.90;;;8.60;;
75246;SDS011;63844;50.042;19.224;2023-02-15T13:20:24;16.70;;;8.40;;
75246;SDS011;63844;50.042;19.224;2023-02-15T13:22:55;15.10;;;8.10;;
75246;SDS011;63844;50.042;19.224;2023-02-15T13:25:26;19.90;;;9.80;;
75246;SDS011;63844;50.042;19.224;2023-02-15T13:27:59;17.80;;;9.10;;
75246;SDS011;63844;50.042;19.224;2023-02-15T13:30:34;20.60;;;9.50;;
75246;SDS011;63844;50.042;19.224;2023-02-15T13:33:05;18.50;;;9.90;;
75246;SDS011;63844;50.042;19.224;2023-02-15T13:35:44;19.20;;;9.60;;
75246;SDS011;63844;50.042;19.224;2023-02-15T13:38:41;16.00;;;7.00;;
75246;SDS011;63844;50.042;19.224;2023-02-15T13:41:15;14.60;;;7.90;;
75246;SDS011;63844;50.042;19.224;2023-02-15T13:43:58;20.00;;;10.80;;
75246;SDS011;63844;50.042;19.224;2023-02-15T13:52:23;18.10;;;9.70;;
75246;SDS011;63844;50.042;19.224;2023-02-15T13:55:11;20.40;;;10.80;;
75246;SDS011;63844;50.042;19.224;2023-02-15T14:06:27;19.90;;;10.30;;
75246;SDS011;63844;50.042;19.224;2023-02-15T14:09:18;17.80;;;9.50;;
75246;SDS011;63844;50.042;19.224;2023-02-15T14:14:31;23.80;;;11.20;;
75246;SDS011;63844;50.042;19.224;2023-02-15T14:20:11;31.80;;;16.50;;
75246;SDS011;63844;50.042;19.224;2023-02-15T14:22:54;30.10;;;15.80;;
75246;SDS011;63844;50.042;19.224;2023-02-15T14:28:08;29.30;;;12.80;;
75246;SDS011;63844;50.042;19.224;2023-02-15T14:30:42;21.70;;;10.40;;
75246;SDS011;63844;50.042;19.224;2023-02-15T14:35:45;21.00;;;10.50;;
75246;SDS011;63844;50.042;19.224;2023-02-15T14:41:04;20.50;;;9.30;;
75246;SDS011;63844;50.042;19.224;2023-02-15T14:43:45;38.00;;;16.30;;
75246;SDS011;63844;50.042;19.224;2023-02-15T14:49:03;33.70;;;14.10;;
75246;SDS011;63844;50.042;19.224;2023-02-15T15:02:07;35.00;;;14.50;;
75246;SDS011;63844;50.042;19.224;2023-02-15T15:04:41;41.00;;;16.20;;
75246;SDS011;63844;50.042;19.224;2023-02-15T15:07:23;48.40;;;19.20;;
75246;SDS011;63844;50.042;19.224;2023-02-15T15:09:59;55.70;;;21.60;;
75246;SDS011;63844;50.042;19.224;2023-02-15T15:15:00;41.90;;;15.30;;
75246;SDS011;63844;50.042;19.224;2023-02-15T15:20:47;25.70;;;11.30;;
75246;SDS011;63844;50.042;19.224;2023-02-15T15:25:51;28.80;;;11.40;;
75246;SDS011;63844;50.042;19.224;2023-02-15T15:33:54;25.40;;;11.30;;
75246;SDS011;63844;50.042;19.224;2023-02-15T15:36:30;21.80;;;11.10;;
75246;SDS011;63844;50.042;19.224;2023-02-15T15:39:18;21.70;;;10.90;;
75246;SDS011;63844;50.042;19.224;2023-02-15T15:50:41;24.00;;;11.00;;
75246;SDS011;63844;50.042;19.224;2023-02-15T15:53:27;26.40;;;11.20;;
75246;SDS011;63844;50.042;19.224;2023-02-15T15:55:59;52.30;;;17.80;;
75246;SDS011;63844;50.042;19.224;2023-02-15T15:58:31;35.70;;;15.10;;
75246;SDS011;63844;50.042;19.224;2023-02-15T16:01:03;30.10;;;13.30;;
75246;SDS011;63844;50.042;19.224;2023-02-15T16:03:33;29.00;;;12.20;;
75246;SDS011;63844;50.042;19.224;2023-02-15T16:06:00;33.30;;;11.90;;
75246;SDS011;63844;50.042;19.224;2023-02-15T16:10:54;34.70;;;12.30;;
75246;SDS011;63844;50.042;19.224;2023-02-15T16:15:50;28.70;;;10.90;;
75246;SDS011;63844;50.042;19.224;2023-02-15T16:18:27;33.10;;;12.60;;
75246;SDS011;63844;50.042;19.224;2023-02-15T16:20:58;44.80;;;15.20;;
75246;SDS011;63844;50.042;19.224;2023-02-15T16:28:38;78.70;;;21.40;;
75246;SDS011;63844;50.042;19.224;2023-02-15T16:31:14;89.60;;;22.60;;
75246;SDS011;63844;50.042;19.224;2023-02-15T16:33:42;83.80;;;21.70;;
75246;SDS011;63844;50.042;19.224;2023-02-15T16:36:12;77.70;;;21.40;;
75246;SDS011;63844;50.042;19.224;2023-02-15T16:41:14;81.30;;;24.80;;
75246;SDS011;63844;50.042;19.224;2023-02-15T16:43:44;143.60;;;40.50;;
75246;SDS011;63844;50.042;19.224;2023-02-15T16:46:18;169.10;;;46.70;;
75246;SDS011;63844;50.042;19.224;2023-02-15T16:49:07;159.20;;;41.50;;
75246;SDS011;63844;50.042;19.224;2023-02-15T16:51:43;136.80;;;40.00;;
75246;SDS011;63844;50.042;19.224;2023-02-15T16:54:15;110.60;;;32.70;;
75246;SDS011;63844;50.042;19.224;2023-02-15T16:56:46;72.60;;;25.10;;
75246;SDS011;63844;50.042;19.224;2023-02-15T16:59:27;80.20;;;25.90;;
75246;SDS011;63844;50.042;19.224;2023-02-15T17:01:59;84.10;;;27.80;;
75246;SDS011;63844;50.042;19.224;2023-02-15T17:04:28;93.40;;;26.90;;
75246;SDS011;63844;50.042;19.224;2023-02-15T17:07:06;62.80;;;23.40;;
75246;SDS011;63844;50.042;19.224;2023-02-15T17:18:01;36.80;;;15.80;;
75246;SDS011;63844;50.042;19.224;2023-02-15T17:23:21;44.50;;;17.30;;
75246;SDS011;63844;50.042;19.224;2023-02-15T17:26:00;52.40;;;18.00;;
75246;SDS011;63844;50.042;19.224;2023-02-15T17:28:37;57.30;;;21.20;;
75246;SDS011;63844;50.042;19.224;2023-02-15T17:31:07;53.40;;;19.30;;